sensor_id;sensor_type;location;lat;lon;timestamp;temperature;humidity
76168;DHT22;64927;48.214;16.378;2024-02-28T00:01:26;13.40;64.40
76168;DHT22;64927;48.214;16.378;2024-02-28T00:03:52;13.40;64.30
76168;DHT22;64927;48.214;16.378;2024-02-28T00:06:20;13.30;64.30
76168;DHT22;64927;48.214;16.378;2024-02-28T00:08:46;13.30;64.30
76168;DHT22;64927;48.214;16.378;2024-02-28T00:11:11;13.30;64.60
76168;DHT22;64927;48.214;16.378;2024-02-28T00:13:37;13.20;64.80
76168;DHT22;64927;48.214;16.378;2024-02-28T00:16:03;13.20;64.90
76168;DHT22;64927;48.214;16.378;2024-02-28T00:18:31;13.20;65.00
76168;DHT22;64927;48.214;16.378;2024-02-28T00:20:57;13.20;65.80
76168;DHT22;64927;48.214;16.378;2024-02-28T00:23:22;13.20;64.90
76168;DHT22;64927;48.214;16.378;2024-02-28T00:25:48;13.20;65.30
76168;DHT22;64927;48.214;16.378;2024-02-28T00:28:13;13.20;65.30
76168;DHT22;64927;48.214;16.378;2024-02-28T00:30:40;13.20;65.10
76168;DHT22;64927;48.214;16.378;2024-02-28T00:33:06;13.20;66.00
76168;DHT22;64927;48.214;16.378;2024-02-28T00:35:32;13.30;65.10
76168;DHT22;64927;48.214;16.378;2024-02-28T00:37:59;13.30;65.30
76168;DHT22;64927;48.214;16.378;2024-02-28T00:40:24;13.30;65.20
76168;DHT22;64927;48.214;16.378;2024-02-28T00:42:53;13.40;65.00
76168;DHT22;64927;48.214;16.378;2024-02-28T00:45:18;13.40;65.00
76168;DHT22;64927;48.214;16.378;2024-02-28T00:47:44;13.40;65.10
76168;DHT22;64927;48.214;16.378;2024-02-28T00:50:10;13.40;65.00
76168;DHT22;64927;48.214;16.378;2024-02-28T00:52:37;13.50;65.00
76168;DHT22;64927;48.214;16.378;2024-02-28T00:55:03;13.50;65.00
76168;DHT22;64927;48.214;16.378;2024-02-28T00:57:32;13.50;64.90
76168;DHT22;64927;48.214;16.378;2024-02-28T00:59:58;13.60;64.80
76168;DHT22;64927;48.214;16.378;2024-02-28T01:02:24;13.60;64.60
76168;DHT22;64927;48.214;16.378;2024-02-28T01:04:50;13.70;64.60
76168;DHT22;64927;48.214;16.378;2024-02-28T01:07:15;13.70;64.60
76168;DHT22;64927;48.214;16.378;2024-02-28T01:09:41;13.70;64.60
76168;DHT22;64927;48.214;16.378;2024-02-28T01:12:07;13.70;64.50
76168;DHT22;64927;48.214;16.378;2024-02-28T01:14:33;13.70;64.40
76168;DHT22;64927;48.214;16.378;2024-02-28T01:16:59;13.70;65.00
76168;DHT22;64927;48.214;16.378;2024-02-28T01:19:24;13.70;64.20
76168;DHT22;64927;48.214;16.378;2024-02-28T01:21:50;13.70;64.30
76168;DHT22;64927;48.214;16.378;2024-02-28T01:24:16;13.80;64.20
76168;DHT22;64927;48.214;16.378;2024-02-28T01:26:41;13.70;64.20
76168;DHT22;64927;48.214;16.378;2024-02-28T01:29:07;13.70;64.10
76168;DHT22;64927;48.214;16.378;2024-02-28T01:31:33;13.80;64.00
76168;DHT22;64927;48.214;16.378;2024-02-28T01:33:58;13.80;63.70
76168;DHT22;64927;48.214;16.378;2024-02-28T01:36:24;13.90;63.80
76168;DHT22;64927;48.214;16.378;2024-02-28T01:38:51;13.80;63.70
76168;DHT22;64927;48.214;16.378;2024-02-28T01:41:17;13.90;63.70
76168;DHT22;64927;48.214;16.378;2024-02-28T01:43:43;13.90;63.50
76168;DHT22;64927;48.214;16.378;2024-02-28T01:46:26;13.90;63.30
76168;DHT22;64927;48.214;16.378;2024-02-28T01:48:53;13.90;64.00
76168;DHT22;64927;48.214;16.378;2024-02-28T01:51:23;13.90;63.20
76168;DHT22;64927;48.214;16.378;2024-02-28T01:53:51;14.00;63.00
76168;DHT22;64927;48.214;16.378;2024-02-28T01:56:19;14.00;63.00
76168;DHT22;64927;48.214;16.378;2024-02-28T01:58:46;14.00;62.60
76168;DHT22;64927;48.214;16.378;2024-02-28T02:01:16;14.00;62.50
76168;DHT22;64927;48.214;16.378;2024-02-28T02:03:43;14.00;62.50
76168;DHT22;64927;48.214;16.378;2024-02-28T02:06:09;14.00;62.70
76168;DHT22;64927;48.214;16.378;2024-02-28T02:08:36;14.00;62.50
76168;DHT22;64927;48.214;16.378;2024-02-28T02:11:02;14.00;62.40
76168;DHT22;64927;48.214;16.378;2024-02-28T02:13:28;13.90;62.50
76168;DHT22;64927;48.214;16.378;2024-02-28T02:15:54;13.90;62.70
76168;DHT22;64927;48.214;16.378;2024-02-28T02:18:20;13.90;62.70
76168;DHT22;64927;48.214;16.378;2024-02-28T02:20:50;13.90;62.80
76168;DHT22;64927;48.214;16.378;2024-02-28T02:23:15;13.90;62.70
76168;DHT22;64927;48.214;16.378;2024-02-28T02:25:48;13.90;62.70
76168;DHT22;64927;48.214;16.378;2024-02-28T02:28:17;13.90;62.80
76168;DHT22;64927;48.214;16.378;2024-02-28T02:30:42;13.90;62.80
76168;DHT22;64927;48.214;16.378;2024-02-28T02:33:08;13.90;62.70
76168;DHT22;64927;48.214;16.378;2024-02-28T02:35:34;13.90;62.90
76168;DHT22;64927;48.214;16.378;2024-02-28T02:38:00;13.90;62.80
76168;DHT22;64927;48.214;16.378;2024-02-28T02:40:26;13.90;62.80
76168;DHT22;64927;48.214;16.378;2024-02-28T02:42:51;13.80;63.10
76168;DHT22;64927;48.214;16.378;2024-02-28T02:45:17;13.80;63.20
76168;DHT22;64927;48.214;16.378;2024-02-28T02:47:43;13.80;63.10
76168;DHT22;64927;48.214;16.378;2024-02-28T02:50:12;13.80;63.20
76168;DHT22;64927;48.214;16.378;2024-02-28T02:52:38;13.80;63.10
76168;DHT22;64927;48.214;16.378;2024-02-28T02:55:06;13.80;63.20
76168;DHT22;64927;48.214;16.378;2024-02-28T02:57:32;13.80;63.00
76168;DHT22;64927;48.214;16.378;2024-02-28T02:59:58;13.80;63.10
76168;DHT22;64927;48.214;16.378;2024-02-28T03:02:23;13.80;63.20
76168;DHT22;64927;48.214;16.378;2024-02-28T03:04:49;13.80;63.30
76168;DHT22;64927;48.214;16.378;2024-02-28T03:07:15;13.80;63.10
76168;DHT22;64927;48.214;16.378;2024-02-28T03:09:41;13.90;63.00
76168;DHT22;64927;48.214;16.378;2024-02-28T03:12:06;13.80;64.10
76168;DHT22;64927;48.214;16.378;2024-02-28T03:14:32;13.80;63.20
76168;DHT22;64927;48.214;16.378;2024-02-28T03:16:58;13.80;63.20
76168;DHT22;64927;48.214;16.378;2024-02-28T03:19:23;13.70;63.20
76168;DHT22;64927;48.214;16.378;2024-02-28T03:21:49;13.80;63.20
76168;DHT22;64927;48.214;16.378;2024-02-28T03:24:17;13.70;63.70
76168;DHT22;64927;48.214;16.378;2024-02-28T03:26:43;13.60;63.90
76168;DHT22;64927;48.214;16.378;2024-02-28T03:29:09;13.50;64.20
76168;DHT22;64927;48.214;16.378;2024-02-28T03:31:35;13.20;65.00
76168;DHT22;64927;48.214;16.378;2024-02-28T03:34:01;13.20;65.40
76168;DHT22;64927;48.214;16.378;2024-02-28T03:36:28;13.20;65.50
76168;DHT22;64927;48.214;16.378;2024-02-28T03:38:54;13.10;65.60
76168;DHT22;64927;48.214;16.378;2024-02-28T03:41:22;13.00;65.10
76168;DHT22;64927;48.214;16.378;2024-02-28T03:43:47;12.80;65.10
76168;DHT22;64927;48.214;16.378;2024-02-28T03:46:13;12.60;65.50
76168;DHT22;64927;48.214;16.378;2024-02-28T03:48:38;12.60;65.20
76168;DHT22;64927;48.214;16.378;2024-02-28T03:51:06;12.60;65.00
76168;DHT22;64927;48.214;16.378;2024-02-28T03:53:32;12.60;64.60
76168;DHT22;64927;48.214;16.378;2024-02-28T03:56:00;12.40;64.60
76168;DHT22;64927;48.214;16.378;2024-02-28T03:58:28;12.20;64.90
76168;DHT22;64927;48.214;16.378;2024-02-28T04:00:56;12.00;65.60
76168;DHT22;64927;48.214;16.378;2024-02-28T04:03:24;11.90;65.90
76168;DHT22;64927;48.214;16.378;2024-02-28T04:05:50;12.10;65.60
76168;DHT22;64927;48.214;16.378;2024-02-28T04:08:18;12.10;65.30
76168;DHT22;64927;48.214;16.378;2024-02-28T04:10:43;12.10;65.30
76168;DHT22;64927;48.214;16.378;2024-02-28T04:13:09;12.00;65.70
76168;DHT22;64927;48.214;16.378;2024-02-28T04:15:35;12.00;65.90
76168;DHT22;64927;48.214;16.378;2024-02-28T04:18:01;12.00;65.70
76168;DHT22;64927;48.214;16.378;2024-02-28T04:20:26;12.10;64.90
76168;DHT22;64927;48.214;16.378;2024-02-28T04:22:52;12.10;64.20
76168;DHT22;64927;48.214;16.378;2024-02-28T04:25:17;12.10;64.00
76168;DHT22;64927;48.214;16.378;2024-02-28T04:27:44;12.10;63.70
76168;DHT22;64927;48.214;16.378;2024-02-28T04:30:10;12.20;63.50
76168;DHT22;64927;48.214;16.378;2024-02-28T04:32:36;12.10;63.20
76168;DHT22;64927;48.214;16.378;2024-02-28T04:35:01;12.10;62.80
76168;DHT22;64927;48.214;16.378;2024-02-28T04:37:28;12.00;62.80
76168;DHT22;64927;48.214;16.378;2024-02-28T04:39:54;12.00;62.70
76168;DHT22;64927;48.214;16.378;2024-02-28T04:42:20;11.90;62.70
76168;DHT22;64927;48.214;16.378;2024-02-28T04:44:45;11.80;62.50
76168;DHT22;64927;48.214;16.378;2024-02-28T04:47:11;11.80;62.80
76168;DHT22;64927;48.214;16.378;2024-02-28T04:49:37;11.80;62.70
76168;DHT22;64927;48.214;16.378;2024-02-28T04:52:04;11.70;62.70
76168;DHT22;64927;48.214;16.378;2024-02-28T04:54:30;11.60;62.70
76168;DHT22;64927;48.214;16.378;2024-02-28T04:56:56;11.60;63.10
76168;DHT22;64927;48.214;16.378;2024-02-28T04:59:22;11.50;63.00
76168;DHT22;64927;48.214;16.378;2024-02-28T05:01:47;11.50;62.80
76168;DHT22;64927;48.214;16.378;2024-02-28T05:04:14;11.50;63.00
76168;DHT22;64927;48.214;16.378;2024-02-28T05:06:39;11.40;62.90
76168;DHT22;64927;48.214;16.378;2024-02-28T05:09:05;11.40;62.90
76168;DHT22;64927;48.214;16.378;2024-02-28T05:11:31;11.40;62.80
76168;DHT22;64927;48.214;16.378;2024-02-28T05:13:57;11.40;62.90
76168;DHT22;64927;48.214;16.378;2024-02-28T05:16:23;11.40;62.80
76168;DHT22;64927;48.214;16.378;2024-02-28T05:18:48;11.40;62.90
76168;DHT22;64927;48.214;16.378;2024-02-28T05:21:14;11.40;62.70
76168;DHT22;64927;48.214;16.378;2024-02-28T05:23:40;11.40;62.70
76168;DHT22;64927;48.214;16.378;2024-02-28T05:26:08;11.40;62.50
76168;DHT22;64927;48.214;16.378;2024-02-28T05:28:34;11.30;62.60
76168;DHT22;64927;48.214;16.378;2024-02-28T05:31:02;11.30;62.30
76168;DHT22;64927;48.214;16.378;2024-02-28T05:33:29;11.20;62.50
76168;DHT22;64927;48.214;16.378;2024-02-28T05:35:54;11.10;62.70
76168;DHT22;64927;48.214;16.378;2024-02-28T05:38:22;11.10;62.80
76168;DHT22;64927;48.214;16.378;2024-02-28T05:40:48;11.10;62.70
76168;DHT22;64927;48.214;16.378;2024-02-28T05:43:15;11.10;62.70
76168;DHT22;64927;48.214;16.378;2024-02-28T05:45:44;11.10;62.30
76168;DHT22;64927;48.214;16.378;2024-02-28T05:48:09;11.10;62.60
76168;DHT22;64927;48.214;16.378;2024-02-28T05:50:35;11.10;62.70
76168;DHT22;64927;48.214;16.378;2024-02-28T05:53:03;11.10;62.70
76168;DHT22;64927;48.214;16.378;2024-02-28T05:55:29;11.10;62.60
76168;DHT22;64927;48.214;16.378;2024-02-28T05:57:55;11.10;62.40
76168;DHT22;64927;48.214;16.378;2024-02-28T06:00:20;11.10;62.20
76168;DHT22;64927;48.214;16.378;2024-02-28T06:02:46;11.00;62.40
76168;DHT22;64927;48.214;16.378;2024-02-28T06:05:12;11.00;62.20
76168;DHT22;64927;48.214;16.378;2024-02-28T06:07:37;11.10;62.00
76168;DHT22;64927;48.214;16.378;2024-02-28T06:10:03;11.10;62.30
76168;DHT22;64927;48.214;16.378;2024-02-28T06:12:29;11.10;62.00
76168;DHT22;64927;48.214;16.378;2024-02-28T06:14:55;11.10;61.70
76168;DHT22;64927;48.214;16.378;2024-02-28T06:17:21;11.10;61.70
76168;DHT22;64927;48.214;16.378;2024-02-28T06:19:47;11.20;62.00
76168;DHT22;64927;48.214;16.378;2024-02-28T06:22:13;11.20;61.70
76168;DHT22;64927;48.214;16.378;2024-02-28T06:24:43;11.30;61.00
76168;DHT22;64927;48.214;16.378;2024-02-28T06:27:08;11.40;60.70
76168;DHT22;64927;48.214;16.378;2024-02-28T06:29:41;11.30;60.90
76168;DHT22;64927;48.214;16.378;2024-02-28T06:32:09;11.20;61.00
76168;DHT22;64927;48.214;16.378;2024-02-28T06:34:35;11.30;60.80
76168;DHT22;64927;48.214;16.378;2024-02-28T06:37:02;11.40;61.60
76168;DHT22;64927;48.214;16.378;2024-02-28T06:39:29;11.30;60.70
76168;DHT22;64927;48.214;16.378;2024-02-28T06:41:57;11.50;60.60
76168;DHT22;64927;48.214;16.378;2024-02-28T06:44:22;11.50;60.50
76168;DHT22;64927;48.214;16.378;2024-02-28T06:46:48;11.50;60.40
76168;DHT22;64927;48.214;16.378;2024-02-28T06:49:16;11.50;60.20
76168;DHT22;64927;48.214;16.378;2024-02-28T06:51:44;11.50;60.30
76168;DHT22;64927;48.214;16.378;2024-02-28T06:54:10;11.50;59.90
76168;DHT22;64927;48.214;16.378;2024-02-28T06:56:38;11.40;60.10
76168;DHT22;64927;48.214;16.378;2024-02-28T06:59:03;11.50;60.20
76168;DHT22;64927;48.214;16.378;2024-02-28T07:01:29;11.50;60.00
76168;DHT22;64927;48.214;16.378;2024-02-28T07:03:55;11.60;59.90
76168;DHT22;64927;48.214;16.378;2024-02-28T07:06:21;11.60;59.90
76168;DHT22;64927;48.214;16.378;2024-02-28T07:08:47;11.60;59.80
76168;DHT22;64927;48.214;16.378;2024-02-28T07:11:16;11.60;59.50
76168;DHT22;64927;48.214;16.378;2024-02-28T07:13:41;11.60;59.70
76168;DHT22;64927;48.214;16.378;2024-02-28T07:16:07;11.60;59.60
76168;DHT22;64927;48.214;16.378;2024-02-28T07:18:33;11.70;59.10
76168;DHT22;64927;48.214;16.378;2024-02-28T07:20:59;11.70;59.60
76168;DHT22;64927;48.214;16.378;2024-02-28T07:23:25;11.70;59.00
76168;DHT22;64927;48.214;16.378;2024-02-28T07:25:51;11.80;59.00
76168;DHT22;64927;48.214;16.378;2024-02-28T07:28:19;11.90;59.00
76168;DHT22;64927;48.214;16.378;2024-02-28T07:30:44;11.90;58.60
76168;DHT22;64927;48.214;16.378;2024-02-28T07:33:11;12.00;58.20
76168;DHT22;64927;48.214;16.378;2024-02-28T07:35:46;11.90;58.70
76168;DHT22;64927;48.214;16.378;2024-02-28T07:38:13;11.90;58.30
76168;DHT22;64927;48.214;16.378;2024-02-28T07:40:38;11.90;58.10
76168;DHT22;64927;48.214;16.378;2024-02-28T07:43:04;11.90;58.60
76168;DHT22;64927;48.214;16.378;2024-02-28T07:45:30;11.80;58.40
76168;DHT22;64927;48.214;16.378;2024-02-28T07:47:56;11.80;58.70
76168;DHT22;64927;48.214;16.378;2024-02-28T07:50:24;11.80;58.90
76168;DHT22;64927;48.214;16.378;2024-02-28T07:52:50;11.90;58.20
76168;DHT22;64927;48.214;16.378;2024-02-28T07:55:17;11.90;57.70
76168;DHT22;64927;48.214;16.378;2024-02-28T07:57:50;11.90;58.10
76168;DHT22;64927;48.214;16.378;2024-02-28T08:00:16;11.90;57.90
76168;DHT22;64927;48.214;16.378;2024-02-28T08:02:44;12.00;57.50
76168;DHT22;64927;48.214;16.378;2024-02-28T08:05:10;12.10;57.60
76168;DHT22;64927;48.214;16.378;2024-02-28T08:07:36;12.20;57.50
76168;DHT22;64927;48.214;16.378;2024-02-28T08:10:02;12.20;57.00
76168;DHT22;64927;48.214;16.378;2024-02-28T08:12:30;12.40;57.00
76168;DHT22;64927;48.214;16.378;2024-02-28T08:14:58;12.50;56.60
76168;DHT22;64927;48.214;16.378;2024-02-28T08:17:24;12.60;55.90
76168;DHT22;64927;48.214;16.378;2024-02-28T08:19:50;12.70;55.50
76168;DHT22;64927;48.214;16.378;2024-02-28T08:22:15;12.70;55.40
76168;DHT22;64927;48.214;16.378;2024-02-28T08:24:41;12.70;55.60
76168;DHT22;64927;48.214;16.378;2024-02-28T08:27:09;12.70;55.10
76168;DHT22;64927;48.214;16.378;2024-02-28T08:29:34;12.70;55.60
76168;DHT22;64927;48.214;16.378;2024-02-28T08:32:01;12.70;55.40
76168;DHT22;64927;48.214;16.378;2024-02-28T08:34:27;12.70;55.10
76168;DHT22;64927;48.214;16.378;2024-02-28T08:36:52;12.80;55.00
76168;DHT22;64927;48.214;16.378;2024-02-28T08:39:18;12.90;54.90
76168;DHT22;64927;48.214;16.378;2024-02-28T08:41:43;12.90;54.60
76168;DHT22;64927;48.214;16.378;2024-02-28T08:44:10;13.00;54.60
76168;DHT22;64927;48.214;16.378;2024-02-28T08:46:36;13.10;54.70
76168;DHT22;64927;48.214;16.378;2024-02-28T08:49:04;13.10;54.00
76168;DHT22;64927;48.214;16.378;2024-02-28T08:51:29;13.00;54.40
76168;DHT22;64927;48.214;16.378;2024-02-28T08:53:57;13.10;54.30
76168;DHT22;64927;48.214;16.378;2024-02-28T08:56:25;13.20;54.10
76168;DHT22;64927;48.214;16.378;2024-02-28T08:58:50;13.20;54.00
76168;DHT22;64927;48.214;16.378;2024-02-28T09:01:16;13.10;54.50
76168;DHT22;64927;48.214;16.378;2024-02-28T09:03:42;13.30;54.40
76168;DHT22;64927;48.214;16.378;2024-02-28T09:06:08;13.30;53.70
76168;DHT22;64927;48.214;16.378;2024-02-28T09:08:33;13.30;53.60
76168;DHT22;64927;48.214;16.378;2024-02-28T09:10:59;13.10;54.20
76168;DHT22;64927;48.214;16.378;2024-02-28T09:13:25;13.20;54.20
76168;DHT22;64927;48.214;16.378;2024-02-28T09:15:52;13.40;54.20
76168;DHT22;64927;48.214;16.378;2024-02-28T09:18:17;13.40;53.70
76168;DHT22;64927;48.214;16.378;2024-02-28T09:20:45;13.50;53.40
76168;DHT22;64927;48.214;16.378;2024-02-28T09:23:11;13.50;53.20
76168;DHT22;64927;48.214;16.378;2024-02-28T09:25:37;13.60;53.10
76168;DHT22;64927;48.214;16.378;2024-02-28T09:28:02;13.50;53.30
76168;DHT22;64927;48.214;16.378;2024-02-28T09:30:28;13.60;53.20
76168;DHT22;64927;48.214;16.378;2024-02-28T09:32:56;13.50;53.20
76168;DHT22;64927;48.214;16.378;2024-02-28T09:35:22;13.50;53.20
76168;DHT22;64927;48.214;16.378;2024-02-28T09:37:48;13.50;53.30
76168;DHT22;64927;48.214;16.378;2024-02-28T09:40:16;13.50;53.60
76168;DHT22;64927;48.214;16.378;2024-02-28T09:42:42;13.70;54.00
76168;DHT22;64927;48.214;16.378;2024-02-28T09:45:12;13.80;52.90
76168;DHT22;64927;48.214;16.378;2024-02-28T09:47:38;13.90;54.80
76168;DHT22;64927;48.214;16.378;2024-02-28T09:50:05;14.00;53.20
76168;DHT22;64927;48.214;16.378;2024-02-28T09:52:31;14.10;54.40
76168;DHT22;64927;48.214;16.378;2024-02-28T09:55:02;14.20;52.80
76168;DHT22;64927;48.214;16.378;2024-02-28T09:57:32;14.30;51.50
76168;DHT22;64927;48.214;16.378;2024-02-28T10:00:02;14.30;52.80
76168;DHT22;64927;48.214;16.378;2024-02-28T10:02:29;14.60;51.40
76168;DHT22;64927;48.214;16.378;2024-02-28T10:04:56;14.60;51.20
76168;DHT22;64927;48.214;16.378;2024-02-28T10:07:23;14.70;51.10
76168;DHT22;64927;48.214;16.378;2024-02-28T10:09:48;14.80;50.60
76168;DHT22;64927;48.214;16.378;2024-02-28T10:12:17;14.70;51.00
76168;DHT22;64927;48.214;16.378;2024-02-28T10:14:45;14.80;50.90
76168;DHT22;64927;48.214;16.378;2024-02-28T10:17:10;14.80;50.80
76168;DHT22;64927;48.214;16.378;2024-02-28T10:19:36;14.90;50.30
76168;DHT22;64927;48.214;16.378;2024-02-28T10:22:02;15.00;50.00
76168;DHT22;64927;48.214;16.378;2024-02-28T10:24:32;15.10;49.80
76168;DHT22;64927;48.214;16.378;2024-02-28T10:27:04;15.10;49.60
76168;DHT22;64927;48.214;16.378;2024-02-28T10:29:32;15.20;50.10
76168;DHT22;64927;48.214;16.378;2024-02-28T10:32:03;15.00;49.70
76168;DHT22;64927;48.214;16.378;2024-02-28T10:34:31;15.00;51.00
76168;DHT22;64927;48.214;16.378;2024-02-28T10:37:00;15.20;49.90
76168;DHT22;64927;48.214;16.378;2024-02-28T10:39:29;15.40;49.50
76168;DHT22;64927;48.214;16.378;2024-02-28T10:42:02;15.40;49.30
76168;DHT22;64927;48.214;16.378;2024-02-28T10:44:28;15.40;48.90
76168;DHT22;64927;48.214;16.378;2024-02-28T10:46:56;15.30;49.00
76168;DHT22;64927;48.214;16.378;2024-02-28T10:49:22;15.40;49.00
76168;DHT22;64927;48.214;16.378;2024-02-28T10:51:51;15.40;49.40
76168;DHT22;64927;48.214;16.378;2024-02-28T10:54:21;15.50;49.10
76168;DHT22;64927;48.214;16.378;2024-02-28T10:56:51;15.20;49.50
76168;DHT22;64927;48.214;16.378;2024-02-28T10:59:17;15.30;49.20
76168;DHT22;64927;48.214;16.378;2024-02-28T11:01:43;15.50;49.20
76168;DHT22;64927;48.214;16.378;2024-02-28T11:04:15;15.70;48.30
76168;DHT22;64927;48.214;16.378;2024-02-28T11:06:51;15.70;48.50
76168;DHT22;64927;48.214;16.378;2024-02-28T11:09:25;15.90;48.20
76168;DHT22;64927;48.214;16.378;2024-02-28T11:11:54;16.10;47.80
76168;DHT22;64927;48.214;16.378;2024-02-28T11:14:21;16.30;47.50
76168;DHT22;64927;48.214;16.378;2024-02-28T11:16:58;16.40;47.20
76168;DHT22;64927;48.214;16.378;2024-02-28T11:19:24;16.30;46.70
76168;DHT22;64927;48.214;16.378;2024-02-28T11:21:59;16.10;47.20
76168;DHT22;64927;48.214;16.378;2024-02-28T11:24:29;15.90;47.80
76168;DHT22;64927;48.214;16.378;2024-02-28T11:27:01;15.80;47.70
76168;DHT22;64927;48.214;16.378;2024-02-28T11:29:29;15.90;47.70
76168;DHT22;64927;48.214;16.378;2024-02-28T11:31:57;16.00;48.00
76168;DHT22;64927;48.214;16.378;2024-02-28T11:34:23;16.10;47.50
76168;DHT22;64927;48.214;16.378;2024-02-28T11:36:49;16.00;47.80
76168;DHT22;64927;48.214;16.378;2024-02-28T11:39:16;16.00;47.50
76168;DHT22;64927;48.214;16.378;2024-02-28T11:41:42;16.00;47.50
76168;DHT22;64927;48.214;16.378;2024-02-28T11:44:15;15.70;49.30
76168;DHT22;64927;48.214;16.378;2024-02-28T11:46:48;15.80;48.30
76168;DHT22;64927;48.214;16.378;2024-02-28T11:49:17;15.90;48.10
76168;DHT22;64927;48.214;16.378;2024-02-28T11:51:48;15.70;48.70
76168;DHT22;64927;48.214;16.378;2024-02-28T11:54:13;15.60;49.20
76168;DHT22;64927;48.214;16.378;2024-02-28T11:56:42;15.50;48.80
76168;DHT22;64927;48.214;16.378;2024-02-28T11:59:08;15.50;49.20
76168;DHT22;64927;48.214;16.378;2024-02-28T12:01:43;15.30;49.20
76168;DHT22;64927;48.214;16.378;2024-02-28T12:04:12;15.40;49.40
76168;DHT22;64927;48.214;16.378;2024-02-28T12:06:39;15.40;49.20
76168;DHT22;64927;48.214;16.378;2024-02-28T12:09:09;15.40;49.20
76168;DHT22;64927;48.214;16.378;2024-02-28T12:11:36;15.30;49.20
76168;DHT22;64927;48.214;16.378;2024-02-28T12:14:08;15.40;49.40
76168;DHT22;64927;48.214;16.378;2024-02-28T12:16:40;15.60;49.00
76168;DHT22;64927;48.214;16.378;2024-02-28T12:19:10;15.70;48.60
76168;DHT22;64927;48.214;16.378;2024-02-28T12:21:39;15.70;48.60
76168;DHT22;64927;48.214;16.378;2024-02-28T12:24:07;15.70;48.60
76168;DHT22;64927;48.214;16.378;2024-02-28T12:26:34;15.70;48.60
76168;DHT22;64927;48.214;16.378;2024-02-28T12:29:00;15.70;48.70
76168;DHT22;64927;48.214;16.378;2024-02-28T12:31:27;15.60;48.90
76168;DHT22;64927;48.214;16.378;2024-02-28T12:33:52;15.70;48.80
76168;DHT22;64927;48.214;16.378;2024-02-28T12:36:20;15.50;48.80
76168;DHT22;64927;48.214;16.378;2024-02-28T12:38:46;15.30;50.40
76168;DHT22;64927;48.214;16.378;2024-02-28T12:41:13;15.20;49.70
76168;DHT22;64927;48.214;16.378;2024-02-28T12:43:39;15.20;49.80
76168;DHT22;64927;48.214;16.378;2024-02-28T12:46:05;15.20;50.20
76168;DHT22;64927;48.214;16.378;2024-02-28T12:48:36;15.30;50.30
76168;DHT22;64927;48.214;16.378;2024-02-28T12:51:05;15.40;50.10
76168;DHT22;64927;48.214;16.378;2024-02-28T12:53:34;15.50;50.30
76168;DHT22;64927;48.214;16.378;2024-02-28T12:56:00;15.50;50.00
76168;DHT22;64927;48.214;16.378;2024-02-28T12:58:28;15.30;49.90
76168;DHT22;64927;48.214;16.378;2024-02-28T13:00:54;15.30;50.20
76168;DHT22;64927;48.214;16.378;2024-02-28T13:03:19;14.70;51.40
76168;DHT22;64927;48.214;16.378;2024-02-28T13:05:45;14.70;52.10
76168;DHT22;64927;48.214;16.378;2024-02-28T13:08:11;14.80;51.80
76168;DHT22;64927;48.214;16.378;2024-02-28T13:10:38;14.40;52.50
76168;DHT22;64927;48.214;16.378;2024-02-28T13:13:07;14.30;53.20
76168;DHT22;64927;48.214;16.378;2024-02-28T13:15:33;14.60;52.50
76168;DHT22;64927;48.214;16.378;2024-02-28T13:17:59;14.70;52.40
76168;DHT22;64927;48.214;16.378;2024-02-28T13:20:26;14.80;51.80
76168;DHT22;64927;48.214;16.378;2024-02-28T13:22:54;14.80;51.60
76168;DHT22;64927;48.214;16.378;2024-02-28T13:25:20;14.90;51.70
76168;DHT22;64927;48.214;16.378;2024-02-28T13:27:46;15.00;51.40
76168;DHT22;64927;48.214;16.378;2024-02-28T13:30:12;14.90;51.40
76168;DHT22;64927;48.214;16.378;2024-02-28T13:32:39;14.70;51.60
76168;DHT22;64927;48.214;16.378;2024-02-28T13:35:04;14.80;51.60
76168;DHT22;64927;48.214;16.378;2024-02-28T13:37:30;14.90;51.30
76168;DHT22;64927;48.214;16.378;2024-02-28T13:39:57;14.80;51.40
76168;DHT22;64927;48.214;16.378;2024-02-28T13:42:26;14.80;51.60
76168;DHT22;64927;48.214;16.378;2024-02-28T13:44:54;14.70;51.60
76168;DHT22;64927;48.214;16.378;2024-02-28T13:47:20;14.70;51.70
76168;DHT22;64927;48.214;16.378;2024-02-28T13:49:46;14.70;51.70
76168;DHT22;64927;48.214;16.378;2024-02-28T13:52:12;14.70;51.80
76168;DHT22;64927;48.214;16.378;2024-02-28T13:54:38;14.70;51.40
76168;DHT22;64927;48.214;16.378;2024-02-28T13:57:04;14.70;51.60
76168;DHT22;64927;48.214;16.378;2024-02-28T13:59:30;14.60;51.60
76168;DHT22;64927;48.214;16.378;2024-02-28T14:01:57;14.60;51.80
76168;DHT22;64927;48.214;16.378;2024-02-28T14:04:24;14.60;52.10
76168;DHT22;64927;48.214;16.378;2024-02-28T14:06:49;14.50;52.10
76168;DHT22;64927;48.214;16.378;2024-02-28T14:09:15;14.50;52.20
76168;DHT22;64927;48.214;16.378;2024-02-28T14:11:41;14.60;52.10
76168;DHT22;64927;48.214;16.378;2024-02-28T14:14:07;14.60;51.90
76168;DHT22;64927;48.214;16.378;2024-02-28T14:16:33;14.60;52.10
76168;DHT22;64927;48.214;16.378;2024-02-28T14:18:58;14.20;52.80
76168;DHT22;64927;48.214;16.378;2024-02-28T14:21:24;14.20;53.50
76168;DHT22;64927;48.214;16.378;2024-02-28T14:23:53;14.20;53.20
76168;DHT22;64927;48.214;16.378;2024-02-28T14:26:19;14.20;53.20
76168;DHT22;64927;48.214;16.378;2024-02-28T14:28:45;14.10;53.20
76168;DHT22;64927;48.214;16.378;2024-02-28T14:31:11;14.10;53.30
76168;DHT22;64927;48.214;16.378;2024-02-28T14:33:36;14.00;53.60
76168;DHT22;64927;48.214;16.378;2024-02-28T14:36:02;14.10;53.70
76168;DHT22;64927;48.214;16.378;2024-02-28T14:38:31;14.00;54.00
76168;DHT22;64927;48.214;16.378;2024-02-28T14:40:57;14.00;54.10
76168;DHT22;64927;48.214;16.378;2024-02-28T14:43:22;14.00;53.80
76168;DHT22;64927;48.214;16.378;2024-02-28T14:45:51;14.00;54.00
76168;DHT22;64927;48.214;16.378;2024-02-28T14:48:17;13.90;54.00
76168;DHT22;64927;48.214;16.378;2024-02-28T14:50:45;13.80;54.40
76168;DHT22;64927;48.214;16.378;2024-02-28T14:53:10;13.80;54.50
76168;DHT22;64927;48.214;16.378;2024-02-28T14:55:38;13.80;54.70
76168;DHT22;64927;48.214;16.378;2024-02-28T14:58:04;13.80;54.80
76168;DHT22;64927;48.214;16.378;2024-02-28T15:00:30;13.90;54.30
76168;DHT22;64927;48.214;16.378;2024-02-28T15:02:56;14.00;54.30
76168;DHT22;64927;48.214;16.378;2024-02-28T15:05:21;13.70;54.90
76168;DHT22;64927;48.214;16.378;2024-02-28T15:07:49;13.70;55.50
76168;DHT22;64927;48.214;16.378;2024-02-28T15:10:15;13.70;55.10
76168;DHT22;64927;48.214;16.378;2024-02-28T15:12:44;13.60;55.20